Main page
METAR-TAF:

METAR-TAF

Airports :

Saint-Denis, Réunion

Roland Garros Airport

latitude: 20-53S, longitude: 055-31E, elevation: 21 m

Current weather observation

The report was made 36 minutes ago, at 20:00 UTC
Wind 5 kt from the South/Southeast
Temperature 21°C
Humidity 83%
Pressure 1018 hPa
Visibility 10 km or more
Broken clouds at a height of 11000 ft

METAR: FMEE 202000Z AUTO 15005KT 9999 BKN110 21/18 Q1018 TEMPO 4500 SHRA

Time: 00:36 (20:36 UTC)

Forecast

The report was made 3 hours and 36 minutes ago, at 17:00 UTC
Forecast valid from 20 at 18 UTC to 21 at 24 UTC
Wind 6 kt from the South
Visibility 10 km or more
Few clouds at a height of 3900 ft
Temporary
from 20 at 18 UTC to 21 at 02 UTC
Visibility: 4500 m
rain showers
Becoming
from 21 at 05 UTC to 21 at 07 UTC
Wind 8 kt from the North
Becoming
from 21 at 14 UTC to 21 at 16 UTC
Wind 5 kt from the South

TAF: FMEE 201700Z 2018/2124 18006KT 9999 FEW039 TEMPO 2018/2102 4500 SHRA BECMG 2105/2107 01008KT BECMG 2114/2116 18005KT

Weather observations and forecasts of more than 4000 airports (METAR and TAF reports).

The available stations are represented by yellow and red dots on the map.

Hover mouse over dot to see the name of the station.

Then click to see weather observations and forecasts.

To change the map : click on the green buttons with a black cross to zoom in, on the green button with a dash to zoom out, or on the green arrows for adjacent maps.


METAR-TAF: